Colcord, Oklahoma
Current Conditions -  °F | °C
As of 7:35 PM on Friday 28 Nov 2014 (Local Time) from KSLG Reporting Station
Clear Clear  
Wind Chill: 54°   Ceiling: Unl
Heat Index: 54°   Visibility: 10mi
Dew Point: 37°   Wind: 14mph
Humidity: 54%   Direction: 200°SSW
Pressure: 29.95"   Gusts: 22mph
Location:  36.26°N, 94.69°W
Report Text: KSLG 290135Z AUTO 20012G19KT 10SM CLR 12/03 A2995 RMK AO1
Loading
Personal Weather Stations






























Interactive Weather Map New forecast layout! Learn more

10-Day Weather Forecast

Advertisements
Track Severe Weather on mobile